sensor_id;sensor_type;location;lat;lon;timestamp;P1;durP1;ratioP1;P2;durP2;ratioP2
17235;SDS011;8734;59.272;17.780;2022-08-27T00:02:05;36.77;;;12.50;;
17235;SDS011;8734;59.272;17.780;2022-08-27T00:04:35;21.43;;;11.60;;
17235;SDS011;8734;59.272;17.780;2022-08-27T00:07:04;24.97;;;11.87;;
17235;SDS011;8734;59.272;17.780;2022-08-27T00:09:34;30.03;;;12.63;;
17235;SDS011;8734;59.272;17.780;2022-08-27T00:12:04;33.80;;;12.47;;
17235;SDS011;8734;59.272;17.780;2022-08-27T00:14:34;25.83;;;11.23;;
17235;SDS011;8734;59.272;17.780;2022-08-27T00:17:04;25.43;;;11.07;;
17235;SDS011;8734;59.272;17.780;2022-08-27T00:19:33;27.70;;;10.93;;
17235;SDS011;8734;59.272;17.780;2022-08-27T00:22:03;22.07;;;10.77;;
17235;SDS011;8734;59.272;17.780;2022-08-27T00:24:32;31.10;;;11.57;;
17235;SDS011;8734;59.272;17.780;2022-08-27T00:27:05;26.23;;;11.13;;
17235;SDS011;8734;59.272;17.780;2022-08-27T00:29:34;23.83;;;11.53;;
17235;SDS011;8734;59.272;17.780;2022-08-27T00:32:02;28.67;;;11.57;;
17235;SDS011;8734;59.272;17.780;2022-08-27T00:34:31;32.87;;;11.23;;
17235;SDS011;8734;59.272;17.780;2022-08-27T00:36:59;26.60;;;11.03;;
17235;SDS011;8734;59.272;17.780;2022-08-27T00:39:28;23.27;;;11.53;;
17235;SDS011;8734;59.272;17.780;2022-08-27T00:41:57;21.30;;;11.23;;
17235;SDS011;8734;59.272;17.780;2022-08-27T00:44:28;27.37;;;10.03;;
17235;SDS011;8734;59.272;17.780;2022-08-27T00:46:57;27.83;;;10.43;;
17235;SDS011;8734;59.272;17.780;2022-08-27T00:49:29;20.87;;;10.80;;
17235;SDS011;8734;59.272;17.780;2022-08-27T00:52:05;28.53;;;11.47;;
17235;SDS011;8734;59.272;17.780;2022-08-27T00:54:45;32.47;;;10.53;;
17235;SDS011;8734;59.272;17.780;2022-08-27T00:57:14;26.17;;;11.13;;
17235;SDS011;8734;59.272;17.780;2022-08-27T00:59:46;25.77;;;10.23;;
17235;SDS011;8734;59.272;17.780;2022-08-27T01:02:15;25.33;;;10.17;;
17235;SDS011;8734;59.272;17.780;2022-08-27T01:04:47;23.73;;;10.43;;
17235;SDS011;8734;59.272;17.780;2022-08-27T01:07:18;33.43;;;10.20;;
17235;SDS011;8734;59.272;17.780;2022-08-27T01:09:48;25.73;;;10.00;;
17235;SDS011;8734;59.272;17.780;2022-08-27T01:12:18;23.87;;;9.63;;
17235;SDS011;8734;59.272;17.780;2022-08-27T01:14:51;24.67;;;11.43;;
17235;SDS011;8734;59.272;17.780;2022-08-27T01:17:19;22.97;;;11.50;;
17235;SDS011;8734;59.272;17.780;2022-08-27T01:19:48;23.17;;;10.60;;
17235;SDS011;8734;59.272;17.780;2022-08-27T01:22:22;21.97;;;9.80;;
17235;SDS011;8734;59.272;17.780;2022-08-27T01:24:59;36.63;;;10.17;;
17235;SDS011;8734;59.272;17.780;2022-08-27T01:27:32;27.20;;;11.53;;
17235;SDS011;8734;59.272;17.780;2022-08-27T01:30:01;21.97;;;12.37;;
17235;SDS011;8734;59.272;17.780;2022-08-27T01:32:31;28.13;;;9.77;;
17235;SDS011;8734;59.272;17.780;2022-08-27T01:35:03;35.13;;;9.80;;
17235;SDS011;8734;59.272;17.780;2022-08-27T01:37:34;25.40;;;10.57;;
17235;SDS011;8734;59.272;17.780;2022-08-27T01:40:06;18.60;;;9.37;;
17235;SDS011;8734;59.272;17.780;2022-08-27T01:42:39;22.27;;;10.30;;
17235;SDS011;8734;59.272;17.780;2022-08-27T01:45:10;21.57;;;9.90;;
17235;SDS011;8734;59.272;17.780;2022-08-27T01:47:41;25.80;;;9.90;;
17235;SDS011;8734;59.272;17.780;2022-08-27T01:50:11;19.80;;;10.00;;
17235;SDS011;8734;59.272;17.780;2022-08-27T01:52:41;23.40;;;10.60;;
17235;SDS011;8734;59.272;17.780;2022-08-27T01:55:12;24.97;;;11.33;;
17235;SDS011;8734;59.272;17.780;2022-08-27T01:57:43;21.50;;;9.67;;
17235;SDS011;8734;59.272;17.780;2022-08-27T02:00:13;27.33;;;9.37;;
17235;SDS011;8734;59.272;17.780;2022-08-27T02:02:44;26.93;;;10.10;;
17235;SDS011;8734;59.272;17.780;2022-08-27T02:05:13;22.37;;;10.00;;
17235;SDS011;8734;59.272;17.780;2022-08-27T02:07:42;23.30;;;11.23;;
17235;SDS011;8734;59.272;17.780;2022-08-27T02:10:13;21.70;;;10.13;;
17235;SDS011;8734;59.272;17.780;2022-08-27T02:12:45;19.33;;;9.80;;
17235;SDS011;8734;59.272;17.780;2022-08-27T02:15:14;28.93;;;9.80;;
17235;SDS011;8734;59.272;17.780;2022-08-27T02:17:43;23.47;;;10.80;;
17235;SDS011;8734;59.272;17.780;2022-08-27T02:20:12;24.50;;;10.43;;
17235;SDS011;8734;59.272;17.780;2022-08-27T02:22:42;24.47;;;9.83;;
17235;SDS011;8734;59.272;17.780;2022-08-27T02:25:15;20.30;;;10.43;;
17235;SDS011;8734;59.272;17.780;2022-08-27T02:27:46;25.00;;;10.33;;
17235;SDS011;8734;59.272;17.780;2022-08-27T02:30:17;26.13;;;10.10;;
17235;SDS011;8734;59.272;17.780;2022-08-27T02:32:47;24.60;;;10.07;;
17235;SDS011;8734;59.272;17.780;2022-08-27T02:35:18;29.63;;;11.10;;
17235;SDS011;8734;59.272;17.780;2022-08-27T02:37:48;25.03;;;11.40;;
17235;SDS011;8734;59.272;17.780;2022-08-27T02:40:18;27.67;;;10.97;;
17235;SDS011;8734;59.272;17.780;2022-08-27T02:42:48;25.33;;;10.30;;
17235;SDS011;8734;59.272;17.780;2022-08-27T02:45:17;20.33;;;10.80;;
17235;SDS011;8734;59.272;17.780;2022-08-27T02:47:46;22.83;;;9.93;;
17235;SDS011;8734;59.272;17.780;2022-08-27T02:50:14;21.40;;;10.10;;
17235;SDS011;8734;59.272;17.780;2022-08-27T02:52:43;20.83;;;9.57;;
17235;SDS011;8734;59.272;17.780;2022-08-27T02:55:12;20.80;;;10.17;;
17235;SDS011;8734;59.272;17.780;2022-08-27T02:57:44;19.97;;;10.63;;
17235;SDS011;8734;59.272;17.780;2022-08-27T03:00:14;21.90;;;10.53;;
17235;SDS011;8734;59.272;17.780;2022-08-27T03:02:44;18.20;;;10.47;;
17235;SDS011;8734;59.272;17.780;2022-08-27T03:05:14;24.30;;;10.53;;
17235;SDS011;8734;59.272;17.780;2022-08-27T03:07:43;21.23;;;10.50;;
17235;SDS011;8734;59.272;17.780;2022-08-27T03:10:13;26.60;;;10.83;;
17235;SDS011;8734;59.272;17.780;2022-08-27T03:12:44;26.17;;;10.67;;
17235;SDS011;8734;59.272;17.780;2022-08-27T03:15:14;18.57;;;10.67;;
17235;SDS011;8734;59.272;17.780;2022-08-27T03:17:45;22.53;;;10.93;;
17235;SDS011;8734;59.272;17.780;2022-08-27T03:20:30;19.57;;;10.30;;
17235;SDS011;8734;59.272;17.780;2022-08-27T03:22:59;25.27;;;10.50;;
17235;SDS011;8734;59.272;17.780;2022-08-27T03:25:28;22.47;;;11.10;;
17235;SDS011;8734;59.272;17.780;2022-08-27T03:27:59;29.87;;;10.50;;
17235;SDS011;8734;59.272;17.780;2022-08-27T03:30:31;26.63;;;10.70;;
17235;SDS011;8734;59.272;17.780;2022-08-27T03:33:00;21.50;;;10.57;;
17235;SDS011;8734;59.272;17.780;2022-08-27T03:35:29;23.23;;;10.37;;
17235;SDS011;8734;59.272;17.780;2022-08-27T03:37:59;27.13;;;10.63;;
17235;SDS011;8734;59.272;17.780;2022-08-27T03:40:28;20.30;;;10.47;;
17235;SDS011;8734;59.272;17.780;2022-08-27T03:42:56;19.27;;;10.07;;
17235;SDS011;8734;59.272;17.780;2022-08-27T03:45:26;23.33;;;9.80;;
17235;SDS011;8734;59.272;17.780;2022-08-27T03:48:15;23.57;;;10.90;;
17235;SDS011;8734;59.272;17.780;2022-08-27T03:50:46;21.60;;;10.40;;
17235;SDS011;8734;59.272;17.780;2022-08-27T03:53:17;22.80;;;10.00;;
17235;SDS011;8734;59.272;17.780;2022-08-27T03:55:46;19.30;;;10.27;;
17235;SDS011;8734;59.272;17.780;2022-08-27T03:58:15;18.57;;;10.53;;
17235;SDS011;8734;59.272;17.780;2022-08-27T04:00:46;26.90;;;10.17;;
17235;SDS011;8734;59.272;17.780;2022-08-27T04:03:14;14.60;;;9.20;;
17235;SDS011;8734;59.272;17.780;2022-08-27T04:05:42;21.47;;;9.73;;
17235;SDS011;8734;59.272;17.780;2022-08-27T04:08:11;27.30;;;10.47;;
17235;SDS011;8734;59.272;17.780;2022-08-27T04:10:40;17.93;;;10.90;;
17235;SDS011;8734;59.272;17.780;2022-08-27T04:13:08;24.47;;;10.33;;
17235;SDS011;8734;59.272;17.780;2022-08-27T04:15:40;17.77;;;9.10;;
17235;SDS011;8734;59.272;17.780;2022-08-27T04:18:12;17.43;;;9.03;;
17235;SDS011;8734;59.272;17.780;2022-08-27T04:20:42;16.87;;;9.90;;
17235;SDS011;8734;59.272;17.780;2022-08-27T04:23:11;24.33;;;10.23;;
17235;SDS011;8734;59.272;17.780;2022-08-27T04:25:39;28.90;;;10.33;;
17235;SDS011;8734;59.272;17.780;2022-08-27T04:28:09;18.57;;;10.60;;
17235;SDS011;8734;59.272;17.780;2022-08-27T04:30:38;19.43;;;10.20;;
17235;SDS011;8734;59.272;17.780;2022-08-27T04:33:08;27.50;;;10.80;;
17235;SDS011;8734;59.272;17.780;2022-08-27T04:35:38;24.00;;;10.43;;
17235;SDS011;8734;59.272;17.780;2022-08-27T04:38:06;17.97;;;10.50;;
17235;SDS011;8734;59.272;17.780;2022-08-27T04:40:35;17.93;;;10.07;;
17235;SDS011;8734;59.272;17.780;2022-08-27T04:43:27;27.33;;;9.93;;
17235;SDS011;8734;59.272;17.780;2022-08-27T04:45:55;19.90;;;10.83;;
17235;SDS011;8734;59.272;17.780;2022-08-27T04:48:24;17.73;;;9.57;;
17235;SDS011;8734;59.272;17.780;2022-08-27T04:50:54;23.30;;;10.13;;
17235;SDS011;8734;59.272;17.780;2022-08-27T04:53:23;18.40;;;9.80;;
17235;SDS011;8734;59.272;17.780;2022-08-27T04:55:51;23.77;;;10.87;;
17235;SDS011;8734;59.272;17.780;2022-08-27T04:58:22;25.00;;;11.23;;
17235;SDS011;8734;59.272;17.780;2022-08-27T05:00:53;17.80;;;10.57;;
17235;SDS011;8734;59.272;17.780;2022-08-27T05:03:26;21.17;;;11.03;;
17235;SDS011;8734;59.272;17.780;2022-08-27T05:05:59;22.83;;;11.27;;
17235;SDS011;8734;59.272;17.780;2022-08-27T05:08:29;29.90;;;12.00;;
17235;SDS011;8734;59.272;17.780;2022-08-27T05:10:58;21.97;;;11.60;;
17235;SDS011;8734;59.272;17.780;2022-08-27T05:13:27;27.23;;;10.77;;
17235;SDS011;8734;59.272;17.780;2022-08-27T05:15:57;24.43;;;10.43;;
17235;SDS011;8734;59.272;17.780;2022-08-27T05:18:26;24.57;;;10.40;;
17235;SDS011;8734;59.272;17.780;2022-08-27T05:20:55;20.93;;;9.87;;
17235;SDS011;8734;59.272;17.780;2022-08-27T05:23:27;24.47;;;10.53;;
17235;SDS011;8734;59.272;17.780;2022-08-27T05:25:55;25.30;;;10.10;;
17235;SDS011;8734;59.272;17.780;2022-08-27T05:28:24;33.33;;;11.37;;
17235;SDS011;8734;59.272;17.780;2022-08-27T05:31:01;15.70;;;9.63;;
17235;SDS011;8734;59.272;17.780;2022-08-27T05:33:31;26.27;;;10.33;;
17235;SDS011;8734;59.272;17.780;2022-08-27T05:36:01;22.40;;;10.47;;
17235;SDS011;8734;59.272;17.780;2022-08-27T05:38:31;27.17;;;10.27;;
17235;SDS011;8734;59.272;17.780;2022-08-27T05:41:03;23.37;;;10.23;;
17235;SDS011;8734;59.272;17.780;2022-08-27T05:43:34;19.10;;;9.90;;
17235;SDS011;8734;59.272;17.780;2022-08-27T05:46:03;25.83;;;10.87;;
17235;SDS011;8734;59.272;17.780;2022-08-27T05:48:33;30.07;;;9.93;;
17235;SDS011;8734;59.272;17.780;2022-08-27T05:51:06;25.67;;;10.67;;
17235;SDS011;8734;59.272;17.780;2022-08-27T05:53:43;27.87;;;10.37;;
17235;SDS011;8734;59.272;17.780;2022-08-27T05:56:11;24.77;;;10.67;;
17235;SDS011;8734;59.272;17.780;2022-08-27T05:58:41;23.97;;;10.77;;
17235;SDS011;8734;59.272;17.780;2022-08-27T06:01:27;28.70;;;9.70;;
17235;SDS011;8734;59.272;17.780;2022-08-27T06:03:57;24.70;;;10.97;;
17235;SDS011;8734;59.272;17.780;2022-08-27T06:06:25;17.83;;;10.37;;
17235;SDS011;8734;59.272;17.780;2022-08-27T06:08:56;21.63;;;10.27;;
17235;SDS011;8734;59.272;17.780;2022-08-27T06:11:24;26.03;;;10.67;;
17235;SDS011;8734;59.272;17.780;2022-08-27T06:13:54;16.17;;;9.20;;
17235;SDS011;8734;59.272;17.780;2022-08-27T06:16:23;34.30;;;11.33;;
17235;SDS011;8734;59.272;17.780;2022-08-27T06:18:52;27.40;;;10.20;;
17235;SDS011;8734;59.272;17.780;2022-08-27T06:21:22;22.17;;;9.23;;
17235;SDS011;8734;59.272;17.780;2022-08-27T06:23:51;25.40;;;9.17;;
17235;SDS011;8734;59.272;17.780;2022-08-27T06:26:22;20.40;;;9.10;;
17235;SDS011;8734;59.272;17.780;2022-08-27T06:28:52;20.73;;;10.10;;
17235;SDS011;8734;59.272;17.780;2022-08-27T06:31:21;25.93;;;10.03;;
17235;SDS011;8734;59.272;17.780;2022-08-27T06:33:52;24.93;;;9.57;;
17235;SDS011;8734;59.272;17.780;2022-08-27T06:36:22;25.80;;;9.37;;
17235;SDS011;8734;59.272;17.780;2022-08-27T06:38:51;25.83;;;10.37;;
17235;SDS011;8734;59.272;17.780;2022-08-27T06:41:23;23.30;;;9.50;;
17235;SDS011;8734;59.272;17.780;2022-08-27T06:43:54;32.43;;;10.17;;
17235;SDS011;8734;59.272;17.780;2022-08-27T06:46:24;30.30;;;10.50;;
17235;SDS011;8734;59.272;17.780;2022-08-27T06:48:55;18.05;;;9.23;;
17235;SDS011;8734;59.272;17.780;2022-08-27T06:51:25;22.25;;;8.65;;
17235;SDS011;8734;59.272;17.780;2022-08-27T06:53:56;20.48;;;9.68;;
17235;SDS011;8734;59.272;17.780;2022-08-27T06:56:28;33.22;;;10.13;;
17235;SDS011;8734;59.272;17.780;2022-08-27T06:58:58;24.73;;;8.80;;
17235;SDS011;8734;59.272;17.780;2022-08-27T07:01:31;26.48;;;8.85;;
17235;SDS011;8734;59.272;17.780;2022-08-27T07:04:02;30.20;;;9.27;;
17235;SDS011;8734;59.272;17.780;2022-08-27T07:06:33;22.40;;;9.65;;
17235;SDS011;8734;59.272;17.780;2022-08-27T07:09:02;27.67;;;8.57;;
17235;SDS011;8734;59.272;17.780;2022-08-27T07:11:33;33.28;;;9.75;;
17235;SDS011;8734;59.272;17.780;2022-08-27T07:14:02;25.60;;;9.60;;
17235;SDS011;8734;59.272;17.780;2022-08-27T07:16:31;26.42;;;9.52;;
17235;SDS011;8734;59.272;17.780;2022-08-27T07:19:01;23.33;;;9.05;;
17235;SDS011;8734;59.272;17.780;2022-08-27T07:21:32;17.50;;;8.80;;
17235;SDS011;8734;59.272;17.780;2022-08-27T07:24:01;28.02;;;9.38;;
17235;SDS011;8734;59.272;17.780;2022-08-27T07:26:34;24.15;;;9.95;;
17235;SDS011;8734;59.272;17.780;2022-08-27T07:29:04;22.85;;;10.43;;
17235;SDS011;8734;59.272;17.780;2022-08-27T07:31:35;24.13;;;10.18;;
17235;SDS011;8734;59.272;17.780;2022-08-27T07:34:04;20.33;;;9.68;;
17235;SDS011;8734;59.272;17.780;2022-08-27T07:36:32;20.05;;;10.00;;
17235;SDS011;8734;59.272;17.780;2022-08-27T07:39:02;34.97;;;10.30;;
17235;SDS011;8734;59.272;17.780;2022-08-27T07:41:31;23.98;;;9.40;;
17235;SDS011;8734;59.272;17.780;2022-08-27T07:44:23;29.33;;;9.93;;
17235;SDS011;8734;59.272;17.780;2022-08-27T07:46:51;24.92;;;9.77;;
17235;SDS011;8734;59.272;17.780;2022-08-27T07:49:21;30.15;;;9.52;;
17235;SDS011;8734;59.272;17.780;2022-08-27T07:51:50;21.95;;;10.27;;
17235;SDS011;8734;59.272;17.780;2022-08-27T07:54:20;31.92;;;9.30;;
17235;SDS011;8734;59.272;17.780;2022-08-27T07:56:52;26.63;;;9.95;;
17235;SDS011;8734;59.272;17.780;2022-08-27T07:59:21;27.33;;;10.48;;
17235;SDS011;8734;59.272;17.780;2022-08-27T08:01:53;21.63;;;10.00;;
17235;SDS011;8734;59.272;17.780;2022-08-27T08:04:23;21.13;;;9.83;;
17235;SDS011;8734;59.272;17.780;2022-08-27T08:06:52;23.98;;;10.07;;
17235;SDS011;8734;59.272;17.780;2022-08-27T08:09:22;23.48;;;9.70;;
17235;SDS011;8734;59.272;17.780;2022-08-27T08:11:52;25.90;;;10.10;;
17235;SDS011;8734;59.272;17.780;2022-08-27T08:14:20;21.58;;;9.27;;
17235;SDS011;8734;59.272;17.780;2022-08-27T08:16:49;29.85;;;10.00;;
17235;SDS011;8734;59.272;17.780;2022-08-27T08:19:17;19.77;;;10.10;;
17235;SDS011;8734;59.272;17.780;2022-08-27T08:21:46;31.20;;;10.20;;
17235;SDS011;8734;59.272;17.780;2022-08-27T08:24:14;23.75;;;10.05;;
17235;SDS011;8734;59.272;17.780;2022-08-27T08:26:44;27.98;;;9.52;;
17235;SDS011;8734;59.272;17.780;2022-08-27T08:29:15;28.27;;;10.65;;
17235;SDS011;8734;59.272;17.780;2022-08-27T08:31:44;21.20;;;10.00;;
17235;SDS011;8734;59.272;17.780;2022-08-27T08:34:16;20.65;;;9.40;;
17235;SDS011;8734;59.272;17.780;2022-08-27T08:36:45;21.58;;;9.07;;
17235;SDS011;8734;59.272;17.780;2022-08-27T08:39:20;23.00;;;9.18;;
17235;SDS011;8734;59.272;17.780;2022-08-27T08:41:50;20.05;;;9.90;;
17235;SDS011;8734;59.272;17.780;2022-08-27T08:44:25;19.45;;;8.73;;
17235;SDS011;8734;59.272;17.780;2022-08-27T08:47:00;24.17;;;9.88;;
17235;SDS011;8734;59.272;17.780;2022-08-27T08:49:34;25.73;;;9.50;;
17235;SDS011;8734;59.272;17.780;2022-08-27T08:52:14;20.30;;;8.73;;
17235;SDS011;8734;59.272;17.780;2022-08-27T08:54:58;24.33;;;9.13;;
17235;SDS011;8734;59.272;17.780;2022-08-27T08:57:34;15.88;;;8.93;;
17235;SDS011;8734;59.272;17.780;2022-08-27T09:00:09;23.17;;;8.20;;
17235;SDS011;8734;59.272;17.780;2022-08-27T09:02:39;24.20;;;9.45;;
17235;SDS011;8734;59.272;17.780;2022-08-27T09:05:16;19.20;;;8.63;;
17235;SDS011;8734;59.272;17.780;2022-08-27T09:07:46;23.55;;;9.13;;
17235;SDS011;8734;59.272;17.780;2022-08-27T09:10:41;23.00;;;9.18;;
17235;SDS011;8734;59.272;17.780;2022-08-27T09:13:18;28.48;;;9.27;;
17235;SDS011;8734;59.272;17.780;2022-08-27T09:15:53;26.15;;;9.20;;
17235;SDS011;8734;59.272;17.780;2022-08-27T09:18:30;24.35;;;8.93;;
17235;SDS011;8734;59.272;17.780;2022-08-27T09:21:04;28.83;;;9.23;;
17235;SDS011;8734;59.272;17.780;2022-08-27T09:23:39;24.88;;;8.95;;
17235;SDS011;8734;59.272;17.780;2022-08-27T09:26:19;23.92;;;9.55;;
17235;SDS011;8734;59.272;17.780;2022-08-27T09:28:54;26.75;;;9.95;;
17235;SDS011;8734;59.272;17.780;2022-08-27T09:31:43;17.83;;;8.50;;
17235;SDS011;8734;59.272;17.780;2022-08-27T09:34:14;18.73;;;8.63;;
17235;SDS011;8734;59.272;17.780;2022-08-27T09:36:50;22.40;;;7.82;;
17235;SDS011;8734;59.272;17.780;2022-08-27T09:39:27;18.17;;;8.43;;
17235;SDS011;8734;59.272;17.780;2022-08-27T09:41:59;20.42;;;7.82;;
17235;SDS011;8734;59.272;17.780;2022-08-27T09:44:29;18.75;;;7.20;;
17235;SDS011;8734;59.272;17.780;2022-08-27T09:47:00;20.83;;;6.70;;
17235;SDS011;8734;59.272;17.780;2022-08-27T09:49:30;15.00;;;6.60;;
17235;SDS011;8734;59.272;17.780;2022-08-27T09:52:02;16.30;;;7.05;;
17235;SDS011;8734;59.272;17.780;2022-08-27T09:54:36;13.77;;;6.82;;
17235;SDS011;8734;59.272;17.780;2022-08-27T09:57:07;11.82;;;6.72;;
17235;SDS011;8734;59.272;17.780;2022-08-27T09:59:39;18.70;;;7.20;;
17235;SDS011;8734;59.272;17.780;2022-08-27T10:02:18;16.17;;;6.68;;
17235;SDS011;8734;59.272;17.780;2022-08-27T10:04:49;13.98;;;6.97;;
17235;SDS011;8734;59.272;17.780;2022-08-27T10:07:22;18.02;;;6.57;;
17235;SDS011;8734;59.272;17.780;2022-08-27T10:09:59;20.27;;;6.68;;
17235;SDS011;8734;59.272;17.780;2022-08-27T10:12:32;13.32;;;6.18;;
17235;SDS011;8734;59.272;17.780;2022-08-27T10:15:13;24.55;;;6.93;;
17235;SDS011;8734;59.272;17.780;2022-08-27T10:17:46;10.82;;;5.82;;
17235;SDS011;8734;59.272;17.780;2022-08-27T10:20:29;18.77;;;6.68;;
17235;SDS011;8734;59.272;17.780;2022-08-27T10:23:09;19.77;;;5.90;;
17235;SDS011;8734;59.272;17.780;2022-08-27T10:25:48;14.40;;;6.43;;
17235;SDS011;8734;59.272;17.780;2022-08-27T10:28:24;21.98;;;6.38;;
17235;SDS011;8734;59.272;17.780;2022-08-27T10:31:09;14.68;;;5.70;;
17235;SDS011;8734;59.272;17.780;2022-08-27T10:34:05;17.67;;;6.22;;
17235;SDS011;8734;59.272;17.780;2022-08-27T10:36:43;11.50;;;6.07;;
17235;SDS011;8734;59.272;17.780;2022-08-27T10:39:19;12.98;;;5.43;;
17235;SDS011;8734;59.272;17.780;2022-08-27T10:41:57;18.23;;;5.80;;
17235;SDS011;8734;59.272;17.780;2022-08-27T10:44:38;20.75;;;6.00;;
17235;SDS011;8734;59.272;17.780;2022-08-27T10:47:26;19.80;;;6.30;;
17235;SDS011;8734;59.272;17.780;2022-08-27T10:50:09;14.18;;;5.85;;
17235;SDS011;8734;59.272;17.780;2022-08-27T10:52:45;18.63;;;6.32;;
17235;SDS011;8734;59.272;17.780;2022-08-27T10:55:19;14.93;;;6.32;;
17235;SDS011;8734;59.272;17.780;2022-08-27T10:58:01;18.08;;;6.75;;
17235;SDS011;8734;59.272;17.780;2022-08-27T11:00:41;16.50;;;6.68;;
17235;SDS011;8734;59.272;17.780;2022-08-27T11:03:17;21.38;;;6.82;;
17235;SDS011;8734;59.272;17.780;2022-08-27T11:05:59;21.63;;;6.57;;
17235;SDS011;8734;59.272;17.780;2022-08-27T11:08:33;22.60;;;7.10;;
17235;SDS011;8734;59.272;17.780;2022-08-27T11:11:06;23.35;;;6.97;;
17235;SDS011;8734;59.272;17.780;2022-08-27T11:13:58;20.73;;;6.57;;
17235;SDS011;8734;59.272;17.780;2022-08-27T11:16:31;15.73;;;7.13;;
17235;SDS011;8734;59.272;17.780;2022-08-27T11:19:12;23.33;;;6.60;;
17235;SDS011;8734;59.272;17.780;2022-08-27T11:21:58;17.48;;;6.45;;
17235;SDS011;8734;59.272;17.780;2022-08-27T11:24:34;19.15;;;7.00;;
17235;SDS011;8734;59.272;17.780;2022-08-27T11:27:08;19.42;;;6.97;;
17235;SDS011;8734;59.272;17.780;2022-08-27T11:29:39;20.00;;;7.43;;
17235;SDS011;8734;59.272;17.780;2022-08-27T11:32:15;17.23;;;7.25;;
17235;SDS011;8734;59.272;17.780;2022-08-27T11:34:54;19.15;;;7.22;;
17235;SDS011;8734;59.272;17.780;2022-08-27T11:37:31;18.65;;;6.70;;
17235;SDS011;8734;59.272;17.780;2022-08-27T11:40:27;16.90;;;6.72;;
17235;SDS011;8734;59.272;17.780;2022-08-27T11:43:04;16.25;;;6.90;;
17235;SDS011;8734;59.272;17.780;2022-08-27T11:45:36;21.45;;;7.30;;
17235;SDS011;8734;59.272;17.780;2022-08-27T11:48:15;26.23;;;7.72;;
17235;SDS011;8734;59.272;17.780;2022-08-27T11:50:52;19.02;;;6.95;;
17235;SDS011;8734;59.272;17.780;2022-08-27T11:53:28;16.30;;;6.47;;
17235;SDS011;8734;59.272;17.780;2022-08-27T11:56:08;27.17;;;6.65;;
17235;SDS011;8734;59.272;17.780;2022-08-27T11:58:40;18.50;;;6.55;;
17235;SDS011;8734;59.272;17.780;2022-08-27T12:01:23;19.20;;;7.03;;
17235;SDS011;8734;59.272;17.780;2022-08-27T12:03:58;17.95;;;6.95;;
17235;SDS011;8734;59.272;17.780;2022-08-27T12:06:38;19.63;;;5.88;;
17235;SDS011;8734;59.272;17.780;2022-08-27T12:09:13;19.02;;;7.07;;
17235;SDS011;8734;59.272;17.780;2022-08-27T12:11:46;13.13;;;5.95;;
17235;SDS011;8734;59.272;17.780;2022-08-27T12:14:27;18.83;;;5.82;;
17235;SDS011;8734;59.272;17.780;2022-08-27T12:17:05;27.70;;;8.10;;
17235;SDS011;8734;59.272;17.780;2022-08-27T12:19:44;20.77;;;7.22;;
17235;SDS011;8734;59.272;17.780;2022-08-27T12:22:30;13.73;;;7.15;;
17235;SDS011;8734;59.272;17.780;2022-08-27T12:25:30;19.20;;;7.32;;
17235;SDS011;8734;59.272;17.780;2022-08-27T12:28:00;17.35;;;7.20;;
17235;SDS011;8734;59.272;17.780;2022-08-27T12:30:31;19.92;;;7.40;;
17235;SDS011;8734;59.272;17.780;2022-08-27T12:33:03;16.02;;;6.90;;
17235;SDS011;8734;59.272;17.780;2022-08-27T12:35:40;18.48;;;6.88;;
17235;SDS011;8734;59.272;17.780;2022-08-27T12:38:13;22.73;;;6.93;;
17235;SDS011;8734;59.272;17.780;2022-08-27T12:40:47;24.83;;;6.85;;
17235;SDS011;8734;59.272;17.780;2022-08-27T12:43:19;19.85;;;6.82;;
17235;SDS011;8734;59.272;17.780;2022-08-27T12:45:54;14.18;;;6.22;;
17235;SDS011;8734;59.272;17.780;2022-08-27T12:48:27;25.67;;;6.85;;
17235;SDS011;8734;59.272;17.780;2022-08-27T12:50:58;24.92;;;7.28;;
17235;SDS011;8734;59.272;17.780;2022-08-27T12:59:20;17.83;;;6.50;;
17235;SDS011;8734;59.272;17.780;2022-08-27T13:02:11;23.25;;;6.68;;
17235;SDS011;8734;59.272;17.780;2022-08-27T13:04:48;16.98;;;6.97;;
17235;SDS011;8734;59.272;17.780;2022-08-27T13:07:24;22.92;;;6.60;;
17235;SDS011;8734;59.272;17.780;2022-08-27T13:10:10;27.05;;;8.20;;
17235;SDS011;8734;59.272;17.780;2022-08-27T13:12:42;20.90;;;7.20;;
17235;SDS011;8734;59.272;17.780;2022-08-27T13:15:12;20.20;;;6.68;;
17235;SDS011;8734;59.272;17.780;2022-08-27T13:17:42;16.38;;;7.03;;
17235;SDS011;8734;59.272;17.780;2022-08-27T13:20:14;20.50;;;6.15;;
17235;SDS011;8734;59.272;17.780;2022-08-27T13:22:46;15.20;;;6.63;;
17235;SDS011;8734;59.272;17.780;2022-08-27T13:25:23;21.42;;;6.68;;
17235;SDS011;8734;59.272;17.780;2022-08-27T13:27:57;18.83;;;7.00;;
17235;SDS011;8734;59.272;17.780;2022-08-27T13:30:33;18.38;;;6.60;;
17235;SDS011;8734;59.272;17.780;2022-08-27T13:33:04;18.70;;;6.70;;
17235;SDS011;8734;59.272;17.780;2022-08-27T13:35:34;20.67;;;7.30;;
17235;SDS011;8734;59.272;17.780;2022-08-27T13:38:03;17.05;;;7.18;;
17235;SDS011;8734;59.272;17.780;2022-08-27T13:40:33;20.08;;;6.80;;
17235;SDS011;8734;59.272;17.780;2022-08-27T13:43:06;28.73;;;7.38;;
17235;SDS011;8734;59.272;17.780;2022-08-27T13:45:37;19.33;;;6.70;;
17235;SDS011;8734;59.272;17.780;2022-08-27T13:48:16;19.52;;;7.53;;
17235;SDS011;8734;59.272;17.780;2022-08-27T13:50:50;22.73;;;7.65;;
17235;SDS011;8734;59.272;17.780;2022-08-27T13:53:23;20.60;;;6.43;;
17235;SDS011;8734;59.272;17.780;2022-08-27T13:56:21;20.40;;;6.20;;
17235;SDS011;8734;59.272;17.780;2022-08-27T13:58:53;16.92;;;5.72;;
17235;SDS011;8734;59.272;17.780;2022-08-27T14:01:26;26.48;;;7.05;;
17235;SDS011;8734;59.272;17.780;2022-08-27T14:03:59;11.82;;;5.30;;
17235;SDS011;8734;59.272;17.780;2022-08-27T14:06:32;15.02;;;6.13;;
17235;SDS011;8734;59.272;17.780;2022-08-27T14:09:10;27.38;;;6.97;;
17235;SDS011;8734;59.272;17.780;2022-08-27T14:11:44;25.42;;;6.20;;
17235;SDS011;8734;59.272;17.780;2022-08-27T14:14:14;15.90;;;4.78;;
17235;SDS011;8734;59.272;17.780;2022-08-27T14:16:45;15.20;;;4.97;;
17235;SDS011;8734;59.272;17.780;2022-08-27T14:19:24;18.58;;;5.18;;
17235;SDS011;8734;59.272;17.780;2022-08-27T14:21:59;12.20;;;5.50;;
17235;SDS011;8734;59.272;17.780;2022-08-27T14:24:27;16.15;;;4.75;;
17235;SDS011;8734;59.272;17.780;2022-08-27T14:27:01;15.43;;;4.72;;
17235;SDS011;8734;59.272;17.780;2022-08-27T14:29:33;18.83;;;5.43;;
17235;SDS011;8734;59.272;17.780;2022-08-27T14:32:03;13.98;;;4.78;;
17235;SDS011;8734;59.272;17.780;2022-08-27T14:34:33;17.20;;;4.07;;
17235;SDS011;8734;59.272;17.780;2022-08-27T14:37:01;16.42;;;3.75;;
17235;SDS011;8734;59.272;17.780;2022-08-27T14:39:30;23.20;;;5.32;;
17235;SDS011;8734;59.272;17.780;2022-08-27T14:41:58;21.73;;;7.55;;
17235;SDS011;8734;59.272;17.780;2022-08-27T14:44:27;20.30;;;7.07;;
17235;SDS011;8734;59.272;17.780;2022-08-27T14:46:58;20.67;;;8.52;;
17235;SDS011;8734;59.272;17.780;2022-08-27T14:49:29;22.90;;;8.02;;
17235;SDS011;8734;59.272;17.780;2022-08-27T14:52:00;20.42;;;7.05;;
17235;SDS011;8734;59.272;17.780;2022-08-27T14:54:31;18.42;;;7.63;;
17235;SDS011;8734;59.272;17.780;2022-08-27T14:56:59;23.05;;;7.95;;
17235;SDS011;8734;59.272;17.780;2022-08-27T14:59:28;21.60;;;7.65;;
17235;SDS011;8734;59.272;17.780;2022-08-27T15:01:59;26.35;;;7.45;;
17235;SDS011;8734;59.272;17.780;2022-08-27T15:04:30;17.23;;;8.32;;
17235;SDS011;8734;59.272;17.780;2022-08-27T15:06:58;26.23;;;7.63;;